sensor_id;sensor_type;location;lat;lon;timestamp;temperature;humidity
16814;DHT22;8524;57.650;11.926;2023-02-24T00:02:03;2.20;99.90
16814;DHT22;8524;57.650;11.926;2023-02-24T00:04:32;2.20;99.90
16814;DHT22;8524;57.650;11.926;2023-02-24T00:07:00;2.20;99.90
16814;DHT22;8524;57.650;11.926;2023-02-24T00:09:29;2.20;99.90
16814;DHT22;8524;57.650;11.926;2023-02-24T00:11:59;2.20;99.90
16814;DHT22;8524;57.650;11.926;2023-02-24T00:14:28;2.20;99.90
16814;DHT22;8524;57.650;11.926;2023-02-24T00:16:56;2.20;99.90
16814;DHT22;8524;57.650;11.926;2023-02-24T00:19:25;2.20;99.90
16814;DHT22;8524;57.650;11.926;2023-02-24T00:21:53;2.20;99.90
16814;DHT22;8524;57.650;11.926;2023-02-24T00:24:21;2.20;99.90
16814;DHT22;8524;57.650;11.926;2023-02-24T00:26:52;2.20;99.90
16814;DHT22;8524;57.650;11.926;2023-02-24T00:29:20;2.20;99.90
16814;DHT22;8524;57.650;11.926;2023-02-24T00:31:49;2.20;99.90
16814;DHT22;8524;57.650;11.926;2023-02-24T00:34:21;2.20;99.90
16814;DHT22;8524;57.650;11.926;2023-02-24T00:36:48;2.20;99.90
16814;DHT22;8524;57.650;11.926;2023-02-24T00:39:15;2.20;99.90
16814;DHT22;8524;57.650;11.926;2023-02-24T00:41:43;2.20;99.90
16814;DHT22;8524;57.650;11.926;2023-02-24T00:44:13;2.20;99.90
16814;DHT22;8524;57.650;11.926;2023-02-24T00:46:42;2.20;99.90
16814;DHT22;8524;57.650;11.926;2023-02-24T00:49:12;2.20;99.90
16814;DHT22;8524;57.650;11.926;2023-02-24T00:51:43;2.30;99.90
16814;DHT22;8524;57.650;11.926;2023-02-24T00:54:10;2.40;99.90
16814;DHT22;8524;57.650;11.926;2023-02-24T00:56:39;2.60;99.90
16814;DHT22;8524;57.650;11.926;2023-02-24T00:59:08;2.80;99.90
16814;DHT22;8524;57.650;11.926;2023-02-24T01:01:37;2.90;99.90
16814;DHT22;8524;57.650;11.926;2023-02-24T01:04:05;3.10;99.90
16814;DHT22;8524;57.650;11.926;2023-02-24T01:06:37;3.10;99.90
16814;DHT22;8524;57.650;11.926;2023-02-24T01:09:04;3.20;99.90
16814;DHT22;8524;57.650;11.926;2023-02-24T01:11:37;3.20;99.90
16814;DHT22;8524;57.650;11.926;2023-02-24T01:14:23;3.30;99.90
16814;DHT22;8524;57.650;11.926;2023-02-24T01:16:53;3.30;99.90
16814;DHT22;8524;57.650;11.926;2023-02-24T01:19:22;3.40;99.90
16814;DHT22;8524;57.650;11.926;2023-02-24T01:21:49;3.40;99.90
16814;DHT22;8524;57.650;11.926;2023-02-24T01:24:19;3.40;99.90
16814;DHT22;8524;57.650;11.926;2023-02-24T01:26:48;3.50;99.90
16814;DHT22;8524;57.650;11.926;2023-02-24T01:29:15;3.50;99.90
16814;DHT22;8524;57.650;11.926;2023-02-24T01:31:43;3.50;99.90
16814;DHT22;8524;57.650;11.926;2023-02-24T01:34:12;3.50;99.90
16814;DHT22;8524;57.650;11.926;2023-02-24T01:36:40;3.50;99.90
16814;DHT22;8524;57.650;11.926;2023-02-24T01:39:09;3.50;99.90
16814;DHT22;8524;57.650;11.926;2023-02-24T01:41:38;3.60;99.90
16814;DHT22;8524;57.650;11.926;2023-02-24T01:46:51;3.60;99.90
16814;DHT22;8524;57.650;11.926;2023-02-24T01:49:24;3.70;99.90
16814;DHT22;8524;57.650;11.926;2023-02-24T01:51:58;3.70;99.90
16814;DHT22;8524;57.650;11.926;2023-02-24T01:54:31;3.80;99.90
16814;DHT22;8524;57.650;11.926;2023-02-24T01:56:59;3.80;99.90
16814;DHT22;8524;57.650;11.926;2023-02-24T01:59:28;3.80;99.90
16814;DHT22;8524;57.650;11.926;2023-02-24T02:01:57;3.80;99.90
16814;DHT22;8524;57.650;11.926;2023-02-24T02:04:35;3.70;99.90
16814;DHT22;8524;57.650;11.926;2023-02-24T02:07:05;3.80;99.90
16814;DHT22;8524;57.650;11.926;2023-02-24T02:09:35;3.80;99.90
16814;DHT22;8524;57.650;11.926;2023-02-24T02:12:02;3.80;99.90
16814;DHT22;8524;57.650;11.926;2023-02-24T02:14:30;3.80;99.90
16814;DHT22;8524;57.650;11.926;2023-02-24T02:17:06;3.80;99.90
16814;DHT22;8524;57.650;11.926;2023-02-24T02:22:58;3.90;99.90
16814;DHT22;8524;57.650;11.926;2023-02-24T02:25:41;4.00;99.90
16814;DHT22;8524;57.650;11.926;2023-02-24T02:28:40;3.90;99.90
16814;DHT22;8524;57.650;11.926;2023-02-24T02:31:25;3.90;99.90
16814;DHT22;8524;57.650;11.926;2023-02-24T02:34:25;3.90;99.90
16814;DHT22;8524;57.650;11.926;2023-02-24T02:36:59;4.00;99.90
16814;DHT22;8524;57.650;11.926;2023-02-24T02:39:40;4.00;99.90
16814;DHT22;8524;57.650;11.926;2023-02-24T02:42:20;4.00;99.90
16814;DHT22;8524;57.650;11.926;2023-02-24T02:44:55;4.00;99.90
16814;DHT22;8524;57.650;11.926;2023-02-24T02:47:27;4.00;99.90
16814;DHT22;8524;57.650;11.926;2023-02-24T02:50:02;4.10;99.90
16814;DHT22;8524;57.650;11.926;2023-02-24T02:52:37;4.00;99.90
16814;DHT22;8524;57.650;11.926;2023-02-24T02:55:08;4.00;99.90
16814;DHT22;8524;57.650;11.926;2023-02-24T02:57:37;4.00;99.90
16814;DHT22;8524;57.650;11.926;2023-02-24T03:00:10;3.90;99.90
16814;DHT22;8524;57.650;11.926;2023-02-24T03:02:41;3.80;99.90
16814;DHT22;8524;57.650;11.926;2023-02-24T03:05:15;3.80;99.90
16814;DHT22;8524;57.650;11.926;2023-02-24T03:07:48;3.90;99.90
16814;DHT22;8524;57.650;11.926;2023-02-24T03:10:19;3.90;99.90
16814;DHT22;8524;57.650;11.926;2023-02-24T03:12:50;3.80;99.90
16814;DHT22;8524;57.650;11.926;2023-02-24T03:15:20;3.80;99.90
16814;DHT22;8524;57.650;11.926;2023-02-24T03:17:51;3.80;99.90
16814;DHT22;8524;57.650;11.926;2023-02-24T03:20:25;3.70;99.90
16814;DHT22;8524;57.650;11.926;2023-02-24T03:23:00;3.60;99.90
16814;DHT22;8524;57.650;11.926;2023-02-24T03:25:35;3.60;99.90
16814;DHT22;8524;57.650;11.926;2023-02-24T03:28:10;3.60;99.90
16814;DHT22;8524;57.650;11.926;2023-02-24T03:30:42;3.60;99.90
16814;DHT22;8524;57.650;11.926;2023-02-24T03:33:16;3.60;99.90
16814;DHT22;8524;57.650;11.926;2023-02-24T03:35:46;3.50;99.90
16814;DHT22;8524;57.650;11.926;2023-02-24T03:38:16;3.50;99.90
16814;DHT22;8524;57.650;11.926;2023-02-24T03:40:44;3.50;99.90
16814;DHT22;8524;57.650;11.926;2023-02-24T03:43:15;3.50;99.90
16814;DHT22;8524;57.650;11.926;2023-02-24T03:45:44;3.50;99.90
16814;DHT22;8524;57.650;11.926;2023-02-24T03:48:12;3.40;99.90
16814;DHT22;8524;57.650;11.926;2023-02-24T03:50:41;3.40;99.90
16814;DHT22;8524;57.650;11.926;2023-02-24T03:53:29;3.40;99.90
16814;DHT22;8524;57.650;11.926;2023-02-24T03:56:05;3.50;99.90
16814;DHT22;8524;57.650;11.926;2023-02-24T03:58:43;3.50;99.90
16814;DHT22;8524;57.650;11.926;2023-02-24T04:01:15;3.50;99.90
16814;DHT22;8524;57.650;11.926;2023-02-24T04:03:50;3.50;99.90
16814;DHT22;8524;57.650;11.926;2023-02-24T04:06:31;3.50;99.90
16814;DHT22;8524;57.650;11.926;2023-02-24T04:09:06;3.60;99.90
16814;DHT22;8524;57.650;11.926;2023-02-24T04:11:41;3.50;99.90
16814;DHT22;8524;57.650;11.926;2023-02-24T04:14:16;3.60;99.90
16814;DHT22;8524;57.650;11.926;2023-02-24T04:16:53;3.50;99.90
16814;DHT22;8524;57.650;11.926;2023-02-24T04:19:24;3.50;99.90
16814;DHT22;8524;57.650;11.926;2023-02-24T04:21:54;3.60;99.90
16814;DHT22;8524;57.650;11.926;2023-02-24T04:24:27;3.60;99.90
16814;DHT22;8524;57.650;11.926;2023-02-24T04:26:58;3.70;99.90
16814;DHT22;8524;57.650;11.926;2023-02-24T04:29:28;3.70;99.90
16814;DHT22;8524;57.650;11.926;2023-02-24T04:32:02;3.70;99.90
16814;DHT22;8524;57.650;11.926;2023-02-24T04:34:31;3.70;99.90
16814;DHT22;8524;57.650;11.926;2023-02-24T04:36:58;3.70;99.90
16814;DHT22;8524;57.650;11.926;2023-02-24T04:39:29;3.70;99.90
16814;DHT22;8524;57.650;11.926;2023-02-24T04:41:57;3.70;99.90
16814;DHT22;8524;57.650;11.926;2023-02-24T04:44:26;3.70;99.90
16814;DHT22;8524;57.650;11.926;2023-02-24T04:46:53;3.70;99.90
16814;DHT22;8524;57.650;11.926;2023-02-24T04:49:21;3.70;99.90
16814;DHT22;8524;57.650;11.926;2023-02-24T04:51:48;3.70;99.90
16814;DHT22;8524;57.650;11.926;2023-02-24T04:54:17;3.70;99.90
16814;DHT22;8524;57.650;11.926;2023-02-24T04:56:47;3.70;99.90
16814;DHT22;8524;57.650;11.926;2023-02-24T04:59:15;3.80;99.90
16814;DHT22;8524;57.650;11.926;2023-02-24T05:01:43;3.80;99.90
16814;DHT22;8524;57.650;11.926;2023-02-24T05:04:12;3.70;99.90
16814;DHT22;8524;57.650;11.926;2023-02-24T05:06:39;3.70;99.90
16814;DHT22;8524;57.650;11.926;2023-02-24T05:09:09;3.80;99.90
16814;DHT22;8524;57.650;11.926;2023-02-24T05:11:40;3.80;99.90
16814;DHT22;8524;57.650;11.926;2023-02-24T05:14:10;3.90;99.90
16814;DHT22;8524;57.650;11.926;2023-02-24T05:16:40;3.90;99.90
16814;DHT22;8524;57.650;11.926;2023-02-24T05:19:08;3.90;99.90
16814;DHT22;8524;57.650;11.926;2023-02-24T05:21:53;4.00;99.90
16814;DHT22;8524;57.650;11.926;2023-02-24T05:24:22;4.00;99.90
16814;DHT22;8524;57.650;11.926;2023-02-24T05:26:50;4.00;99.90
16814;DHT22;8524;57.650;11.926;2023-02-24T05:29:24;4.00;99.90
16814;DHT22;8524;57.650;11.926;2023-02-24T05:31:53;4.00;99.90
16814;DHT22;8524;57.650;11.926;2023-02-24T05:34:21;4.00;99.90
16814;DHT22;8524;57.650;11.926;2023-02-24T05:36:49;4.00;99.90
16814;DHT22;8524;57.650;11.926;2023-02-24T05:39:18;3.90;99.90
16814;DHT22;8524;57.650;11.926;2023-02-24T05:41:48;3.90;99.90
16814;DHT22;8524;57.650;11.926;2023-02-24T05:44:20;3.90;99.90
16814;DHT22;8524;57.650;11.926;2023-02-24T05:46:51;3.80;99.90
16814;DHT22;8524;57.650;11.926;2023-02-24T05:49:24;3.80;99.90
16814;DHT22;8524;57.650;11.926;2023-02-24T05:51:54;3.80;99.90
16814;DHT22;8524;57.650;11.926;2023-02-24T05:54:23;3.90;99.90
16814;DHT22;8524;57.650;11.926;2023-02-24T05:56:57;3.80;99.90
16814;DHT22;8524;57.650;11.926;2023-02-24T05:59:26;3.80;99.90
16814;DHT22;8524;57.650;11.926;2023-02-24T06:01:59;3.80;99.90
16814;DHT22;8524;57.650;11.926;2023-02-24T06:04:31;3.80;99.90
16814;DHT22;8524;57.650;11.926;2023-02-24T06:07:06;3.90;99.90
16814;DHT22;8524;57.650;11.926;2023-02-24T06:09:33;3.90;99.90
16814;DHT22;8524;57.650;11.926;2023-02-24T06:12:04;3.80;99.90
16814;DHT22;8524;57.650;11.926;2023-02-24T06:14:32;3.80;99.90
16814;DHT22;8524;57.650;11.926;2023-02-24T06:17:01;3.80;99.90
16814;DHT22;8524;57.650;11.926;2023-02-24T06:19:28;3.70;99.90
16814;DHT22;8524;57.650;11.926;2023-02-24T06:21:56;3.70;99.90
16814;DHT22;8524;57.650;11.926;2023-02-24T06:24:26;3.70;99.90
16814;DHT22;8524;57.650;11.926;2023-02-24T06:26:54;3.70;99.90
16814;DHT22;8524;57.650;11.926;2023-02-24T06:29:28;3.70;99.90
16814;DHT22;8524;57.650;11.926;2023-02-24T06:31:56;3.70;99.90
16814;DHT22;8524;57.650;11.926;2023-02-24T06:34:24;3.70;99.90
16814;DHT22;8524;57.650;11.926;2023-02-24T06:36:52;3.70;99.90
16814;DHT22;8524;57.650;11.926;2023-02-24T06:39:19;3.70;99.90
16814;DHT22;8524;57.650;11.926;2023-02-24T06:41:48;3.70;99.90
16814;DHT22;8524;57.650;11.926;2023-02-24T06:44:17;3.60;99.90
16814;DHT22;8524;57.650;11.926;2023-02-24T06:46:45;3.60;99.90
16814;DHT22;8524;57.650;11.926;2023-02-24T06:49:12;3.60;99.90
16814;DHT22;8524;57.650;11.926;2023-02-24T06:51:43;3.60;99.90
16814;DHT22;8524;57.650;11.926;2023-02-24T06:54:11;3.70;99.90
16814;DHT22;8524;57.650;11.926;2023-02-24T06:56:40;3.60;99.90
16814;DHT22;8524;57.650;11.926;2023-02-24T06:59:07;3.60;99.90
16814;DHT22;8524;57.650;11.926;2023-02-24T07:01:40;3.60;99.90
16814;DHT22;8524;57.650;11.926;2023-02-24T07:04:12;3.50;99.90
16814;DHT22;8524;57.650;11.926;2023-02-24T07:06:50;3.50;99.90
16814;DHT22;8524;57.650;11.926;2023-02-24T07:09:20;3.50;99.90
16814;DHT22;8524;57.650;11.926;2023-02-24T07:11:52;3.40;99.90
16814;DHT22;8524;57.650;11.926;2023-02-24T07:14:30;3.40;99.90
16814;DHT22;8524;57.650;11.926;2023-02-24T07:16:59;3.40;99.90
16814;DHT22;8524;57.650;11.926;2023-02-24T07:19:33;3.30;99.90
16814;DHT22;8524;57.650;11.926;2023-02-24T07:22:03;3.20;99.90
16814;DHT22;8524;57.650;11.926;2023-02-24T07:24:33;3.30;99.90
16814;DHT22;8524;57.650;11.926;2023-02-24T07:27:03;3.30;99.90
16814;DHT22;8524;57.650;11.926;2023-02-24T07:29:34;3.40;99.90
16814;DHT22;8524;57.650;11.926;2023-02-24T07:32:04;3.50;99.90
16814;DHT22;8524;57.650;11.926;2023-02-24T07:34:33;3.40;99.90
16814;DHT22;8524;57.650;11.926;2023-02-24T07:37:06;3.40;99.90
16814;DHT22;8524;57.650;11.926;2023-02-24T07:39:34;3.40;99.90
16814;DHT22;8524;57.650;11.926;2023-02-24T07:42:01;3.50;99.90
16814;DHT22;8524;57.650;11.926;2023-02-24T07:44:29;3.70;99.90
16814;DHT22;8524;57.650;11.926;2023-02-24T07:46:57;3.70;99.90
16814;DHT22;8524;57.650;11.926;2023-02-24T07:49:25;3.70;99.90
16814;DHT22;8524;57.650;11.926;2023-02-24T07:51:54;3.80;99.90
16814;DHT22;8524;57.650;11.926;2023-02-24T07:54:25;3.90;99.90
16814;DHT22;8524;57.650;11.926;2023-02-24T07:56:55;4.10;99.90
16814;DHT22;8524;57.650;11.926;2023-02-24T07:59:25;4.10;99.90
16814;DHT22;8524;57.650;11.926;2023-02-24T08:01:53;4.30;99.90
16814;DHT22;8524;57.650;11.926;2023-02-24T08:04:23;4.50;99.90
16814;DHT22;8524;57.650;11.926;2023-02-24T08:06:52;4.70;99.90
16814;DHT22;8524;57.650;11.926;2023-02-24T08:09:26;4.80;99.90
16814;DHT22;8524;57.650;11.926;2023-02-24T08:12:19;4.90;99.90
16814;DHT22;8524;57.650;11.926;2023-02-24T08:14:48;5.00;99.90
16814;DHT22;8524;57.650;11.926;2023-02-24T08:17:17;5.00;99.90
16814;DHT22;8524;57.650;11.926;2023-02-24T08:19:46;5.10;99.90
16814;DHT22;8524;57.650;11.926;2023-02-24T08:22:13;5.10;99.90
16814;DHT22;8524;57.650;11.926;2023-02-24T08:24:54;5.10;99.90
16814;DHT22;8524;57.650;11.926;2023-02-24T08:27:27;5.10;99.90
16814;DHT22;8524;57.650;11.926;2023-02-24T08:29:56;5.20;99.90
16814;DHT22;8524;57.650;11.926;2023-02-24T08:32:33;5.20;99.90
16814;DHT22;8524;57.650;11.926;2023-02-24T08:35:03;5.20;99.90
16814;DHT22;8524;57.650;11.926;2023-02-24T08:37:40;5.20;99.90
16814;DHT22;8524;57.650;11.926;2023-02-24T08:40:15;5.20;99.90
16814;DHT22;8524;57.650;11.926;2023-02-24T08:43:05;5.30;99.90
16814;DHT22;8524;57.650;11.926;2023-02-24T08:45:43;5.30;99.90
16814;DHT22;8524;57.650;11.926;2023-02-24T08:48:11;5.30;99.90
16814;DHT22;8524;57.650;11.926;2023-02-24T08:50:59;5.30;99.90
16814;DHT22;8524;57.650;11.926;2023-02-24T08:53:27;5.30;99.90
16814;DHT22;8524;57.650;11.926;2023-02-24T08:55:59;5.30;99.90
16814;DHT22;8524;57.650;11.926;2023-02-24T08:58:34;5.30;99.90
16814;DHT22;8524;57.650;11.926;2023-02-24T09:01:10;5.30;99.90
16814;DHT22;8524;57.650;11.926;2023-02-24T09:03:44;5.30;99.90
16814;DHT22;8524;57.650;11.926;2023-02-24T09:06:13;5.20;99.90
16814;DHT22;8524;57.650;11.926;2023-02-24T09:08:42;5.20;99.90
16814;DHT22;8524;57.650;11.926;2023-02-24T09:11:13;5.10;99.90
16814;DHT22;8524;57.650;11.926;2023-02-24T09:13:43;5.00;99.90
16814;DHT22;8524;57.650;11.926;2023-02-24T09:16:20;5.00;99.90
16814;DHT22;8524;57.650;11.926;2023-02-24T09:18:48;5.10;99.90
16814;DHT22;8524;57.650;11.926;2023-02-24T09:21:36;5.10;99.90
16814;DHT22;8524;57.650;11.926;2023-02-24T09:24:21;5.10;99.90
16814;DHT22;8524;57.650;11.926;2023-02-24T09:26:54;5.00;99.90
16814;DHT22;8524;57.650;11.926;2023-02-24T09:29:23;5.00;99.90
16814;DHT22;8524;57.650;11.926;2023-02-24T09:32:00;5.00;99.90
16814;DHT22;8524;57.650;11.926;2023-02-24T09:34:31;5.00;99.90
16814;DHT22;8524;57.650;11.926;2023-02-24T09:36:59;5.10;99.90
16814;DHT22;8524;57.650;11.926;2023-02-24T09:39:32;5.10;99.90
16814;DHT22;8524;57.650;11.926;2023-02-24T09:42:32;5.00;99.90
16814;DHT22;8524;57.650;11.926;2023-02-24T09:45:15;5.00;99.90
16814;DHT22;8524;57.650;11.926;2023-02-24T09:47:58;5.00;99.90
16814;DHT22;8524;57.650;11.926;2023-02-24T09:50:37;5.00;99.90
16814;DHT22;8524;57.650;11.926;2023-02-24T09:53:27;5.00;99.90
16814;DHT22;8524;57.650;11.926;2023-02-24T09:56:10;5.10;99.90
16814;DHT22;8524;57.650;11.926;2023-02-24T09:58:50;5.10;99.90
16814;DHT22;8524;57.650;11.926;2023-02-24T10:01:29;5.00;99.90
16814;DHT22;8524;57.650;11.926;2023-02-24T10:04:04;5.00;99.90
16814;DHT22;8524;57.650;11.926;2023-02-24T10:06:42;5.00;99.90
16814;DHT22;8524;57.650;11.926;2023-02-24T10:09:24;5.10;99.90
16814;DHT22;8524;57.650;11.926;2023-02-24T10:12:00;5.00;99.90
16814;DHT22;8524;57.650;11.926;2023-02-24T10:14:36;5.10;99.90
16814;DHT22;8524;57.650;11.926;2023-02-24T10:17:15;5.20;99.90
16814;DHT22;8524;57.650;11.926;2023-02-24T10:19:49;5.30;99.90
16814;DHT22;8524;57.650;11.926;2023-02-24T10:22:41;5.40;99.90
16814;DHT22;8524;57.650;11.926;2023-02-24T10:25:37;5.40;99.90
16814;DHT22;8524;57.650;11.926;2023-02-24T10:28:14;5.40;99.90
16814;DHT22;8524;57.650;11.926;2023-02-24T10:30:54;5.30;99.90
16814;DHT22;8524;57.650;11.926;2023-02-24T10:33:33;5.20;99.90
16814;DHT22;8524;57.650;11.926;2023-02-24T10:36:08;5.20;99.90
16814;DHT22;8524;57.650;11.926;2023-02-24T10:38:37;5.30;99.90
16814;DHT22;8524;57.650;11.926;2023-02-24T10:41:10;5.20;99.90
16814;DHT22;8524;57.650;11.926;2023-02-24T10:43:38;5.20;99.90
16814;DHT22;8524;57.650;11.926;2023-02-24T10:46:27;5.20;99.90
16814;DHT22;8524;57.650;11.926;2023-02-24T10:48:59;5.20;99.90
16814;DHT22;8524;57.650;11.926;2023-02-24T10:51:31;5.20;99.90
16814;DHT22;8524;57.650;11.926;2023-02-24T10:54:06;5.30;99.90
16814;DHT22;8524;57.650;11.926;2023-02-24T10:57:05;5.30;99.90
16814;DHT22;8524;57.650;11.926;2023-02-24T10:59:52;5.40;99.90
16814;DHT22;8524;57.650;11.926;2023-02-24T11:02:48;5.30;99.90
16814;DHT22;8524;57.650;11.926;2023-02-24T11:05:39;5.40;99.90
16814;DHT22;8524;57.650;11.926;2023-02-24T11:08:31;5.40;99.90
16814;DHT22;8524;57.650;11.926;2023-02-24T11:11:20;5.30;99.90
16814;DHT22;8524;57.650;11.926;2023-02-24T11:13:55;5.30;99.90
16814;DHT22;8524;57.650;11.926;2023-02-24T11:16:47;5.30;99.90
16814;DHT22;8524;57.650;11.926;2023-02-24T11:19:42;5.40;99.90
16814;DHT22;8524;57.650;11.926;2023-02-24T11:22:13;5.30;99.90
16814;DHT22;8524;57.650;11.926;2023-02-24T11:24:45;5.40;99.90
16814;DHT22;8524;57.650;11.926;2023-02-24T11:27:15;5.50;99.90
16814;DHT22;8524;57.650;11.926;2023-02-24T11:30:01;5.50;99.90
16814;DHT22;8524;57.650;11.926;2023-02-24T11:32:42;5.40;99.90
16814;DHT22;8524;57.650;11.926;2023-02-24T11:35:35;5.40;99.90
16814;DHT22;8524;57.650;11.926;2023-02-24T11:38:15;5.40;99.90
16814;DHT22;8524;57.650;11.926;2023-02-24T11:41:00;5.40;99.90
16814;DHT22;8524;57.650;11.926;2023-02-24T11:43:35;5.40;99.90
16814;DHT22;8524;57.650;11.926;2023-02-24T11:46:11;5.40;99.90
16814;DHT22;8524;57.650;11.926;2023-02-24T11:48:44;5.30;99.90
16814;DHT22;8524;57.650;11.926;2023-02-24T11:51:17;5.30;99.90
16814;DHT22;8524;57.650;11.926;2023-02-24T11:53:51;5.30;99.90
16814;DHT22;8524;57.650;11.926;2023-02-24T11:56:23;5.50;99.90
16814;DHT22;8524;57.650;11.926;2023-02-24T11:59:00;5.40;99.90
16814;DHT22;8524;57.650;11.926;2023-02-24T12:01:36;5.30;99.90
16814;DHT22;8524;57.650;11.926;2023-02-24T12:04:19;5.10;99.90
16814;DHT22;8524;57.650;11.926;2023-02-24T12:06:58;4.90;99.90
16814;DHT22;8524;57.650;11.926;2023-02-24T12:09:41;5.00;99.90
16814;DHT22;8524;57.650;11.926;2023-02-24T12:12:23;4.90;99.90
16814;DHT22;8524;57.650;11.926;2023-02-24T12:15:14;4.90;99.90
16814;DHT22;8524;57.650;11.926;2023-02-24T12:17:50;4.80;99.90
16814;DHT22;8524;57.650;11.926;2023-02-24T12:20:46;4.80;99.90
16814;DHT22;8524;57.650;11.926;2023-02-24T12:23:21;4.70;99.90
16814;DHT22;8524;57.650;11.926;2023-02-24T12:26:07;4.80;99.90
16814;DHT22;8524;57.650;11.926;2023-02-24T12:31:34;4.60;99.90
16814;DHT22;8524;57.650;11.926;2023-02-24T12:34:11;4.60;99.90
16814;DHT22;8524;57.650;11.926;2023-02-24T12:36:54;4.70;99.90
16814;DHT22;8524;57.650;11.926;2023-02-24T12:39:36;4.40;99.90
16814;DHT22;8524;57.650;11.926;2023-02-24T12:42:29;4.40;99.90
16814;DHT22;8524;57.650;11.926;2023-02-24T12:45:13;4.50;99.90
16814;DHT22;8524;57.650;11.926;2023-02-24T12:47:53;4.60;99.90
16814;DHT22;8524;57.650;11.926;2023-02-24T12:50:52;4.60;99.90
16814;DHT22;8524;57.650;11.926;2023-02-24T12:53:33;4.80;99.90
16814;DHT22;8524;57.650;11.926;2023-02-24T12:56:37;4.80;99.90
16814;DHT22;8524;57.650;11.926;2023-02-24T12:59:24;4.90;99.90
16814;DHT22;8524;57.650;11.926;2023-02-24T13:01:56;5.00;99.90
16814;DHT22;8524;57.650;11.926;2023-02-24T13:04:42;5.10;99.90
16814;DHT22;8524;57.650;11.926;2023-02-24T13:07:39;5.10;99.90
16814;DHT22;8524;57.650;11.926;2023-02-24T13:10:20;5.10;99.90
16814;DHT22;8524;57.650;11.926;2023-02-24T13:13:03;5.20;99.90
16814;DHT22;8524;57.650;11.926;2023-02-24T13:15:31;5.30;99.90
16814;DHT22;8524;57.650;11.926;2023-02-24T13:18:09;5.30;99.90
16814;DHT22;8524;57.650;11.926;2023-02-24T13:20:37;5.40;99.90
16814;DHT22;8524;57.650;11.926;2023-02-24T13:23:19;5.30;99.90
16814;DHT22;8524;57.650;11.926;2023-02-24T13:25:50;5.30;99.90
16814;DHT22;8524;57.650;11.926;2023-02-24T13:28:24;5.30;99.90
16814;DHT22;8524;57.650;11.926;2023-02-24T13:31:02;5.50;99.90
16814;DHT22;8524;57.650;11.926;2023-02-24T13:33:32;5.40;99.90
16814;DHT22;8524;57.650;11.926;2023-02-24T13:36:13;5.30;99.90
16814;DHT22;8524;57.650;11.926;2023-02-24T13:38:42;4.90;99.90
16814;DHT22;8524;57.650;11.926;2023-02-24T13:41:39;4.80;99.90
16814;DHT22;8524;57.650;11.926;2023-02-24T13:44:25;4.60;99.90
16814;DHT22;8524;57.650;11.926;2023-02-24T13:47:07;4.50;99.90
16814;DHT22;8524;57.650;11.926;2023-02-24T13:49:57;4.30;99.90
16814;DHT22;8524;57.650;11.926;2023-02-24T13:52:38;4.10;99.90
16814;DHT22;8524;57.650;11.926;2023-02-24T13:55:25;4.00;99.90
16814;DHT22;8524;57.650;11.926;2023-02-24T14:01:09;3.90;99.90
16814;DHT22;8524;57.650;11.926;2023-02-24T14:03:40;3.90;99.90
16814;DHT22;8524;57.650;11.926;2023-02-24T14:06:14;4.00;99.90
16814;DHT22;8524;57.650;11.926;2023-02-24T14:08:44;4.00;99.90
16814;DHT22;8524;57.650;11.926;2023-02-24T14:11:18;4.00;99.90
16814;DHT22;8524;57.650;11.926;2023-02-24T14:13:54;3.80;99.90
16814;DHT22;8524;57.650;11.926;2023-02-24T14:16:26;3.80;99.90
16814;DHT22;8524;57.650;11.926;2023-02-24T14:18:56;3.90;99.90
16814;DHT22;8524;57.650;11.926;2023-02-24T14:21:29;3.90;99.90
16814;DHT22;8524;57.650;11.926;2023-02-24T14:23:58;4.00;99.90
16814;DHT22;8524;57.650;11.926;2023-02-24T14:26:26;4.00;99.90
16814;DHT22;8524;57.650;11.926;2023-02-24T14:28:56;3.90;99.90
16814;DHT22;8524;57.650;11.926;2023-02-24T14:31:27;3.90;99.90
16814;DHT22;8524;57.650;11.926;2023-02-24T14:33:57;3.90;99.90
16814;DHT22;8524;57.650;11.926;2023-02-24T14:36:27;3.90;99.90
16814;DHT22;8524;57.650;11.926;2023-02-24T14:39:08;3.90;99.90
16814;DHT22;8524;57.650;11.926;2023-02-24T14:41:35;3.90;99.90
16814;DHT22;8524;57.650;11.926;2023-02-24T14:44:16;3.90;99.90
16814;DHT22;8524;57.650;11.926;2023-02-24T14:46:51;3.80;99.90
16814;DHT22;8524;57.650;11.926;2023-02-24T14:49:21;3.70;99.90
16814;DHT22;8524;57.650;11.926;2023-02-24T14:51:54;3.70;99.90
16814;DHT22;8524;57.650;11.926;2023-02-24T14:54:33;3.60;99.90
16814;DHT22;8524;57.650;11.926;2023-02-24T14:57:03;3.60;99.90
16814;DHT22;8524;57.650;11.926;2023-02-24T14:59:34;3.70;99.90
16814;DHT22;8524;57.650;11.926;2023-02-24T15:02:12;3.60;99.90
16814;DHT22;8524;57.650;11.926;2023-02-24T15:04:41;3.60;99.90
16814;DHT22;8524;57.650;11.926;2023-02-24T15:07:15;3.60;99.90
16814;DHT22;8524;57.650;11.926;2023-02-24T15:09:45;3.60;99.90
16814;DHT22;8524;57.650;11.926;2023-02-24T15:12:20;3.60;99.90
16814;DHT22;8524;57.650;11.926;2023-02-24T15:14:50;3.70;99.90
16814;DHT22;8524;57.650;11.926;2023-02-24T15:17:20;3.60;99.90
16814;DHT22;8524;57.650;11.926;2023-02-24T15:19:48;3.50;99.90
16814;DHT22;8524;57.650;11.926;2023-02-24T15:22:22;3.50;99.90
16814;DHT22;8524;57.650;11.926;2023-02-24T15:24:50;3.60;99.90
16814;DHT22;8524;57.650;11.926;2023-02-24T15:27:29;3.50;99.90
16814;DHT22;8524;57.650;11.926;2023-02-24T15:30:00;3.40;99.90
16814;DHT22;8524;57.650;11.926;2023-02-24T15:32:31;3.40;99.90
16814;DHT22;8524;57.650;11.926;2023-02-24T15:34:59;3.40;99.90
16814;DHT22;8524;57.650;11.926;2023-02-24T15:37:29;3.40;99.90
16814;DHT22;8524;57.650;11.926;2023-02-24T15:40:04;3.30;99.90
16814;DHT22;8524;57.650;11.926;2023-02-24T15:42:33;3.30;99.90
16814;DHT22;8524;57.650;11.926;2023-02-24T15:45:02;3.20;99.90
16814;DHT22;8524;57.650;11.926;2023-02-24T15:47:40;3.10;99.90
16814;DHT22;8524;57.650;11.926;2023-02-24T15:50:09;3.20;99.90
16814;DHT22;8524;57.650;11.926;2023-02-24T15:52:37;3.20;99.90
16814;DHT22;8524;57.650;11.926;2023-02-24T15:55:05;3.20;99.90
16814;DHT22;8524;57.650;11.926;2023-02-24T15:57:32;3.10;99.90
16814;DHT22;8524;57.650;11.926;2023-02-24T16:00:00;3.10;99.90
16814;DHT22;8524;57.650;11.926;2023-02-24T16:02:27;3.10;99.90
16814;DHT22;8524;57.650;11.926;2023-02-24T16:04:56;3.10;99.90
16814;DHT22;8524;57.650;11.926;2023-02-24T16:07:24;3.10;99.90
16814;DHT22;8524;57.650;11.926;2023-02-24T16:09:55;3.10;99.90
16814;DHT22;8524;57.650;11.926;2023-02-24T16:12:25;3.00;99.90
16814;DHT22;8524;57.650;11.926;2023-02-24T16:14:56;2.90;99.90
16814;DHT22;8524;57.650;11.926;2023-02-24T16:17:32;3.00;99.90
16814;DHT22;8524;57.650;11.926;2023-02-24T16:20:01;2.90;99.90
16814;DHT22;8524;57.650;11.926;2023-02-24T16:22:33;2.90;99.90
16814;DHT22;8524;57.650;11.926;2023-02-24T16:25:00;2.90;99.90
16814;DHT22;8524;57.650;11.926;2023-02-24T16:27:28;2.80;99.90
16814;DHT22;8524;57.650;11.926;2023-02-24T16:29:56;2.80;99.90
16814;DHT22;8524;57.650;11.926;2023-02-24T16:32:23;2.80;99.90
16814;DHT22;8524;57.650;11.926;2023-02-24T16:34:52;2.80;99.90
16814;DHT22;8524;57.650;11.926;2023-02-24T16:37:27;2.80;99.90
16814;DHT22;8524;57.650;11.926;2023-02-24T16:39:54;2.70;99.90